Terminal Aerodrome Forecast
Issued by NWS

Home | Current Version | Previous Version | Text Only | Print | Product List | Glossary On
Versions: 1 2 3 4 5 6 7 8 9 10 11 12 13 14 15
000
FTAK31 PAFA 252339
TAFATA
TAF
PATA 252339Z 2600/2624 25005KT P6SM -SHRA VCTS SCT010 BKN020
      BKN035CB
     FM260300 25005KT P6SM VCSH BKN035
     FM260900 00000KT 2SM BR BKN010
     FM262100 23004KT P6SM SCT010 SCT040=

USA.gov is the U.S. government's official web portal to all federal, state and local government web resources and services.